createdAt,value
2022-11-13T00:00:35.382Z,6.15
2022-11-13T00:03:03.325Z,7.32
2022-11-13T00:05:31.362Z,5.90
2022-11-13T00:07:59.252Z,8.00
2022-11-13T00:10:28.527Z,7.43
2022-11-13T00:12:56.734Z,8.13
2022-11-13T00:15:24.608Z,7.15
2022-11-13T00:17:52.501Z,4.20
2022-11-13T00:20:21.804Z,7.25
2022-11-13T00:22:49.682Z,6.38
2022-11-13T00:25:17.532Z,5.15
2022-11-13T00:27:46.956Z,5.20
2022-11-13T00:30:19.251Z,7.20
2022-11-13T00:32:47.710Z,4.30
2022-11-13T00:35:15.678Z,4.60
2022-11-13T00:37:43.532Z,5.95
2022-11-13T00:40:12.317Z,5.00
2022-11-13T00:42:40.203Z,5.03
2022-11-13T00:45:10.216Z,3.22
2022-11-13T00:47:38.445Z,4.40
2022-11-13T00:50:07.031Z,7.22
2022-11-13T00:52:34.944Z,6.45
2022-11-13T00:55:03.062Z,4.82
2022-11-13T00:57:30.969Z,5.50
2022-11-13T00:59:58.839Z,6.22
2022-11-13T01:02:28.319Z,4.38
2022-11-13T01:04:56.246Z,8.40
2022-11-13T01:07:24.301Z,4.45
2022-11-13T01:09:52.893Z,8.15
2022-11-13T01:12:20.761Z,7.78
2022-11-13T01:14:48.735Z,4.38
2022-11-13T01:17:16.793Z,4.95
2022-11-13T01:19:46.107Z,4.38
2022-11-13T01:22:13.950Z,6.03
2022-11-13T01:24:42.218Z,6.28
2022-11-13T01:27:10.080Z,3.40
2022-11-13T01:29:39.111Z,4.63
2022-11-13T01:32:07.220Z,6.82
2022-11-13T01:34:35.291Z,4.35
2022-11-13T01:37:04.742Z,6.55
2022-11-13T01:39:33.048Z,8.45
2022-11-13T01:42:02.367Z,6.65
2022-11-13T01:44:52.256Z,3.65
2022-11-13T01:47:21.514Z,8.23
2022-11-13T01:49:52.305Z,17.48
2022-11-13T01:52:24.215Z,4.75
2022-11-13T01:54:55.391Z,7.65
2022-11-13T01:57:23.932Z,4.68
2022-11-13T01:59:56.725Z,6.97
2022-11-13T02:02:24.558Z,7.13
2022-11-13T02:04:53.226Z,6.60
2022-11-13T02:07:23.663Z,4.70
2022-11-13T02:09:53.506Z,5.35
2022-11-13T02:12:26.702Z,6.43
2022-11-13T02:14:56.303Z,5.47
2022-11-13T02:17:27.715Z,7.40
2022-11-13T02:19:59.567Z,4.60
2022-11-13T02:22:35.388Z,7.57
2022-11-13T02:25:06.387Z,6.80
2022-11-13T02:27:37.667Z,6.78
2022-11-13T02:30:19.798Z,3.58
2022-11-13T02:32:52.050Z,7.53
2022-11-13T02:35:25.407Z,4.10
2022-11-13T02:37:53.855Z,4.18
2022-11-13T02:40:23.633Z,4.05
2022-11-13T02:42:51.823Z,5.25
2022-11-13T02:45:20.222Z,3.70
2022-11-13T02:47:48.208Z,6.45
2022-11-13T02:50:16.673Z,8.65
2022-11-13T02:52:44.876Z,7.05
2022-11-13T02:55:12.819Z,7.82
2022-11-13T02:57:42.151Z,7.40
2022-11-13T03:00:14.042Z,5.88
2022-11-13T03:02:42.440Z,8.30
2022-11-13T03:05:12.887Z,8.10
2022-11-13T03:07:42.044Z,6.25
2022-11-13T03:10:11.422Z,6.03
2022-11-13T03:12:41.067Z,5.38
2022-11-13T03:15:10.241Z,4.65
2022-11-13T03:17:38.124Z,5.97
2022-11-13T03:20:07.967Z,7.15
2022-11-13T03:22:36.047Z,4.70
2022-11-13T03:25:09.851Z,8.85
2022-11-13T03:27:38.981Z,9.43
2022-11-13T03:30:09.931Z,6.50
2022-11-13T03:32:37.847Z,7.07
2022-11-13T03:35:06.806Z,9.07
2022-11-13T03:37:34.662Z,9.80
2022-11-13T03:40:02.599Z,4.72
2022-11-13T03:42:30.664Z,5.40
2022-11-13T03:44:58.549Z,6.55
2022-11-13T03:47:27.827Z,5.35
2022-11-13T03:49:55.873Z,6.53
2022-11-13T03:52:23.797Z,6.10
2022-11-13T03:54:51.634Z,7.00
2022-11-13T03:57:20.120Z,7.20
2022-11-13T03:59:48.034Z,7.45
2022-11-13T04:02:16.397Z,7.03
2022-11-13T04:04:46.030Z,6.22
2022-11-13T04:07:16.251Z,8.68
2022-11-13T04:09:44.170Z,8.15
2022-11-13T04:12:12.338Z,8.43
2022-11-13T04:14:40.370Z,5.72
2022-11-13T04:17:09.356Z,7.28
2022-11-13T04:19:37.434Z,4.80
2022-11-13T04:22:06.744Z,6.57
2022-11-13T04:24:34.844Z,4.07
2022-11-13T04:27:02.903Z,5.40
2022-11-13T04:29:30.856Z,6.03
2022-11-13T04:31:58.785Z,4.20
2022-11-13T04:34:26.898Z,5.47
2022-11-13T04:36:54.882Z,5.47
2022-11-13T04:39:24.165Z,6.55
2022-11-13T04:42:10.082Z,8.68
2022-11-13T04:44:37.984Z,6.22
2022-11-13T04:47:06.163Z,6.80
2022-11-13T04:49:34.113Z,5.78
2022-11-13T04:52:01.990Z,4.57
2022-11-13T04:54:31.395Z,5.25
2022-11-13T04:56:59.334Z,4.47
2022-11-13T04:59:27.181Z,9.05
2022-11-13T05:01:56.205Z,5.30
2022-11-13T05:04:24.288Z,7.45
2022-11-13T05:06:52.299Z,4.15
2022-11-13T05:09:20.388Z,6.55
2022-11-13T05:11:49.797Z,5.72
2022-11-13T05:14:17.771Z,6.00
2022-11-13T05:16:45.874Z,5.60
2022-11-13T05:19:13.912Z,9.20
2022-11-13T05:21:41.822Z,5.07
2022-11-13T05:24:11.928Z,6.32
2022-11-13T05:26:40.557Z,8.27
2022-11-13T05:29:09.909Z,6.97
2022-11-13T05:31:37.821Z,6.50
2022-11-13T05:34:06.368Z,8.43
2022-11-13T05:36:34.331Z,7.13
2022-11-13T05:39:02.488Z,5.82
2022-11-13T05:41:30.721Z,7.82
2022-11-13T05:43:59.989Z,5.22
2022-11-13T05:46:31.504Z,4.80
2022-11-13T05:49:01.364Z,11.13
2022-11-13T05:51:31.280Z,4.97
2022-11-13T05:53:59.541Z,5.95
2022-11-13T05:56:28.897Z,5.68
2022-11-13T05:58:57.407Z,7.43
2022-11-13T06:01:28.027Z,6.00
2022-11-13T06:03:58.919Z,7.90
2022-11-13T06:06:28.060Z,4.45
2022-11-13T06:08:57.615Z,4.75
2022-11-13T06:11:27.336Z,5.33
2022-11-13T06:13:56.380Z,6.93
2022-11-13T06:16:26.275Z,8.17
2022-11-13T06:18:57.924Z,6.03
2022-11-13T06:21:27.544Z,5.70
2022-11-13T06:23:55.819Z,7.03
2022-11-13T06:26:25.301Z,6.67
2022-11-13T06:28:53.736Z,6.38
2022-11-13T06:31:23.788Z,6.63
2022-11-13T06:33:51.868Z,7.70
2022-11-13T06:36:23.139Z,7.45
2022-11-13T06:38:51.423Z,19.83
2022-11-13T06:41:22.281Z,25.07
2022-11-13T06:43:50.885Z,50.00
2022-11-13T06:46:21.030Z,82.90
2022-11-13T06:48:49.663Z,54.72
2022-11-13T06:51:19.674Z,57.42
2022-11-13T06:53:49.823Z,38.15
2022-11-13T06:56:18.669Z,25.77
2022-11-13T06:58:46.946Z,15.40
2022-11-13T07:01:16.484Z,18.70
2022-11-13T07:03:44.655Z,43.42
2022-11-13T07:06:15.197Z,35.67
2022-11-13T07:08:43.577Z,9.95
2022-11-13T07:11:15.815Z,9.70
2022-11-13T07:13:45.083Z,10.73
2022-11-13T07:16:17.254Z,9.43
2022-11-13T07:18:46.166Z,5.78
2022-11-13T07:21:14.459Z,8.73
2022-11-13T07:23:43.464Z,9.82
2022-11-13T07:26:13.439Z,5.30
2022-11-13T07:28:41.749Z,6.30
2022-11-13T07:31:12.545Z,7.75
2022-11-13T07:33:40.780Z,10.13
2022-11-13T07:36:11.249Z,7.18
2022-11-13T07:38:39.225Z,5.57
2022-11-13T07:41:07.819Z,6.07
2022-11-13T07:43:37.172Z,7.43
2022-11-13T07:46:05.089Z,7.32
2022-11-13T07:48:33.264Z,5.97
2022-11-13T07:51:02.564Z,8.07
2022-11-13T07:53:30.834Z,6.25
2022-11-13T07:56:02.384Z,7.63
2022-11-13T07:58:31.257Z,7.43
2022-11-13T08:01:05.325Z,5.32
2022-11-13T08:03:34.016Z,7.10
2022-11-13T08:06:03.432Z,7.53
2022-11-13T08:08:32.087Z,5.55
2022-11-13T08:11:00.053Z,7.28
2022-11-13T08:13:27.922Z,6.65
2022-11-13T08:15:56.035Z,9.13
2022-11-13T08:18:25.697Z,6.38
2022-11-13T08:20:53.713Z,5.68
2022-11-13T08:23:21.762Z,5.25
2022-11-13T08:25:49.951Z,10.05
2022-11-13T08:28:17.804Z,10.40
2022-11-13T08:30:46.311Z,6.63
2022-11-13T08:33:14.328Z,12.85
2022-11-13T08:35:43.564Z,10.77
2022-11-13T08:38:11.752Z,12.63
2022-11-13T08:40:39.673Z,7.15
2022-11-13T08:43:07.575Z,10.38
2022-11-13T08:45:35.675Z,10.07
2022-11-13T08:48:04.045Z,8.10
2022-11-13T08:50:33.133Z,5.43
2022-11-13T08:53:03.309Z,4.88
2022-11-13T08:55:31.192Z,5.60
2022-11-13T08:58:00.556Z,6.32
2022-11-13T09:00:29.548Z,13.00
2022-11-13T09:02:58.577Z,2.70
2022-11-13T09:05:27.259Z,4.47
2022-11-13T09:07:58.315Z,4.25
2022-11-13T09:10:27.983Z,2.83
2022-11-13T09:12:59.637Z,5.63
2022-11-13T09:15:27.605Z,5.78
2022-11-13T09:17:58.158Z,3.38
2022-11-13T09:20:26.729Z,3.97
2022-11-13T09:22:59.284Z,5.03
2022-11-13T09:25:35.843Z,3.60
2022-11-13T09:28:05.973Z,3.58
2022-11-13T09:30:34.075Z,5.68
2022-11-13T09:33:02.509Z,6.85
2022-11-13T09:35:35.183Z,11.45
2022-11-13T09:38:09.629Z,6.38
2022-11-13T09:40:45.228Z,4.93
2022-11-13T09:43:24.600Z,5.47
2022-11-13T09:45:55.495Z,4.35
2022-11-13T09:48:31.319Z,3.75
2022-11-13T09:51:02.523Z,4.50
2022-11-13T09:53:36.316Z,4.68
2022-11-13T09:56:16.323Z,4.35
2022-11-13T09:58:52.969Z,3.03
2022-11-13T10:01:27.359Z,4.45
2022-11-13T10:04:04.160Z,3.65
2022-11-13T10:06:45.545Z,3.83
2022-11-13T10:09:23.248Z,7.05
2022-11-13T10:11:56.835Z,4.57
2022-11-13T10:14:31.063Z,3.60
2022-11-13T10:17:04.285Z,4.43
2022-11-13T10:19:39.870Z,4.75
2022-11-13T10:22:34.374Z,5.13
2022-11-13T10:25:12.864Z,4.72
2022-11-13T10:27:42.450Z,11.15
2022-11-13T10:30:21.703Z,4.07
2022-11-13T10:32:50.334Z,3.60
2022-11-13T10:35:33.920Z,4.65
2022-11-13T10:38:08.573Z,5.68
2022-11-13T10:40:38.269Z,4.63
2022-11-13T10:43:14.811Z,5.68
2022-11-13T10:45:43.673Z,4.55
2022-11-13T10:48:21.979Z,6.53
2022-11-13T10:50:58.800Z,5.57
2022-11-13T10:53:29.123Z,7.60
2022-11-13T10:55:58.983Z,3.70
2022-11-13T10:58:28.788Z,4.55
2022-11-13T11:00:57.066Z,4.78
2022-11-13T11:03:27.158Z,5.40
2022-11-13T11:05:56.742Z,8.70
2022-11-13T11:08:31.219Z,6.30
2022-11-13T11:11:24.558Z,6.75
2022-11-13T11:13:54.138Z,8.77
2022-11-13T11:16:25.024Z,9.02
2022-11-13T11:18:57.080Z,12.70
2022-11-13T11:21:30.258Z,10.90
2022-11-13T11:24:02.176Z,8.10
2022-11-13T11:26:35.580Z,9.85
2022-11-13T11:29:14.491Z,9.20
2022-11-13T11:31:50.115Z,9.38
2022-11-13T11:34:23.500Z,7.40
2022-11-13T11:36:59.551Z,11.15
2022-11-13T11:39:31.104Z,6.18
2022-11-13T11:42:11.105Z,4.93
2022-11-13T11:44:55.397Z,10.18
2022-11-13T11:47:23.613Z,7.75
2022-11-13T11:49:51.625Z,8.90
2022-11-13T11:52:35.873Z,8.32
2022-11-13T11:55:18.949Z,15.32
2022-11-13T11:57:56.797Z,11.00
2022-11-13T12:00:30.781Z,8.25
2022-11-13T12:03:44.219Z,12.60
2022-11-13T12:06:20.561Z,8.63
2022-11-13T12:08:56.200Z,10.48
2022-11-13T12:11:30.505Z,9.48
2022-11-13T12:14:07.855Z,10.82
2022-11-13T12:16:48.507Z,11.30
2022-11-13T12:19:26.561Z,10.68
2022-11-13T12:22:04.072Z,11.00
2022-11-13T12:24:54.548Z,6.65
2022-11-13T12:27:30.808Z,7.45
2022-11-13T12:30:09.973Z,8.95
2022-11-13T12:33:03.459Z,8.70
2022-11-13T12:35:32.261Z,12.70
2022-11-13T12:38:07.308Z,9.80
2022-11-13T12:40:44.302Z,8.23
2022-11-13T12:43:35.272Z,11.65
2022-11-13T12:46:09.351Z,6.05
2022-11-13T12:48:40.776Z,7.88
2022-11-13T12:51:11.107Z,10.55
2022-11-13T12:53:47.528Z,8.30
2022-11-13T12:56:18.795Z,6.13
2022-11-13T12:59:29.163Z,7.35
2022-11-13T13:01:56.419Z,9.57
2022-11-13T13:04:39.159Z,8.13
2022-11-13T13:07:23.085Z,10.13
2022-11-13T13:10:07.132Z,11.40
2022-11-13T13:12:45.673Z,3.85
2022-11-13T13:15:34.220Z,9.57
2022-11-13T13:18:08.406Z,8.98
2022-11-13T13:20:39.990Z,4.90
2022-11-13T13:23:12.865Z,5.30
2022-11-13T13:25:42.017Z,8.85
2022-11-13T13:28:24.240Z,8.52
2022-11-13T13:31:02.630Z,9.88
2022-11-13T13:33:45.044Z,9.23
2022-11-13T13:36:24.505Z,5.55
2022-11-13T13:38:58.334Z,7.15
2022-11-13T13:41:40.681Z,7.03
2022-11-13T13:44:30.955Z,9.13
2022-11-13T13:46:59.311Z,11.30
2022-11-13T13:49:29.603Z,12.32
2022-11-13T13:51:59.327Z,10.23
2022-11-13T13:54:31.203Z,11.27
2022-11-13T13:56:59.362Z,12.45
2022-11-13T13:59:31.837Z,11.50
2022-11-13T14:02:01.853Z,10.90
2022-11-13T14:04:31.379Z,9.70
2022-11-13T14:07:02.101Z,10.13
2022-11-13T14:09:31.765Z,8.82
2022-11-13T14:12:06.179Z,11.68
2022-11-13T14:14:40.767Z,13.07
2022-11-13T14:17:11.472Z,15.68
2022-11-13T14:19:40.737Z,14.52
2022-11-13T14:22:13.423Z,15.27
2022-11-13T14:24:47.601Z,12.13
2022-11-13T14:27:19.991Z,12.68
2022-11-13T14:29:50.603Z,17.90
2022-11-13T14:32:22.400Z,21.20
2022-11-13T14:34:52.205Z,19.58
2022-11-13T14:37:27.377Z,17.38
2022-11-13T14:39:56.953Z,14.52
2022-11-13T14:42:29.597Z,14.32
2022-11-13T14:45:14.137Z,13.93
2022-11-13T14:47:42.334Z,12.70
2022-11-13T14:50:21.477Z,13.38
2022-11-13T14:52:59.730Z,16.67
2022-11-13T14:55:29.747Z,10.13
2022-11-13T14:57:58.012Z,11.07
2022-11-13T15:00:33.040Z,14.55
2022-11-13T15:03:02.663Z,14.45
2022-11-13T15:05:30.864Z,11.20
2022-11-13T15:08:00.551Z,11.38
2022-11-13T15:10:30.378Z,9.63
2022-11-13T15:12:58.345Z,16.42
2022-11-13T15:15:31.068Z,13.32
2022-11-13T15:17:59.053Z,12.65
2022-11-13T15:20:30.002Z,15.15
2022-11-13T15:23:01.027Z,18.63
2022-11-13T15:25:29.108Z,17.85
2022-11-13T15:27:56.989Z,21.10
2022-11-13T15:30:25.108Z,16.25
2022-11-13T15:32:54.191Z,20.92
2022-11-13T15:35:22.262Z,18.50
2022-11-13T15:37:50.934Z,12.45
2022-11-13T15:40:20.212Z,9.95
2022-11-13T15:42:48.334Z,18.02
2022-11-13T15:45:17.637Z,12.43
2022-11-13T15:47:45.649Z,15.32
2022-11-13T15:50:15.282Z,16.88
2022-11-13T15:52:47.189Z,12.63
2022-11-13T15:55:25.484Z,14.52
2022-11-13T15:57:54.998Z,11.32
2022-11-13T16:00:26.354Z,21.58
2022-11-13T16:02:55.905Z,16.17
2022-11-13T16:05:25.612Z,13.35
2022-11-13T16:07:53.882Z,15.18
2022-11-13T16:10:25.315Z,13.23
2022-11-13T16:12:53.810Z,16.48
2022-11-13T16:15:21.810Z,21.17
2022-11-13T16:17:55.158Z,18.17
2022-11-13T16:20:23.129Z,14.55
2022-11-13T16:22:51.248Z,16.35
2022-11-13T16:25:21.567Z,16.77
2022-11-13T16:27:52.072Z,17.35
2022-11-13T16:30:23.124Z,13.27
2022-11-13T16:32:51.059Z,12.48
2022-11-13T16:35:20.903Z,14.68
2022-11-13T16:37:49.246Z,15.18
2022-11-13T16:40:25.950Z,15.52
2022-11-13T16:42:55.440Z,18.77
2022-11-13T16:45:23.398Z,11.60
2022-11-13T16:47:51.618Z,15.00
2022-11-13T16:50:24.147Z,17.40
2022-11-13T16:52:52.164Z,20.58
2022-11-13T16:55:20.188Z,31.42
2022-11-13T16:57:48.079Z,18.05
2022-11-13T17:00:20.525Z,25.45
2022-11-13T17:02:51.167Z,14.00
2022-11-13T17:05:20.108Z,17.42
2022-11-13T17:07:48.141Z,24.98
2022-11-13T17:10:31.429Z,17.92
2022-11-13T17:13:00.415Z,17.95
2022-11-13T17:15:29.873Z,14.75
2022-11-13T17:17:58.522Z,17.90
2022-11-13T17:20:26.605Z,21.65
2022-11-13T17:22:54.620Z,23.33
2022-11-13T17:25:26.499Z,17.95
2022-11-13T17:27:54.728Z,18.95
2022-11-13T17:30:22.866Z,13.50
2022-11-13T17:32:52.304Z,18.35
2022-11-13T17:35:20.265Z,17.73
2022-11-13T17:37:48.234Z,21.58
2022-11-13T17:40:16.724Z,18.33
2022-11-13T17:42:45.103Z,19.98
2022-11-13T17:45:13.141Z,22.08
2022-11-13T17:47:41.214Z,22.27
2022-11-13T17:50:11.156Z,29.42
2022-11-13T17:52:39.210Z,18.17
2022-11-13T17:55:10.716Z,24.17
2022-11-13T17:57:39.045Z,15.68
2022-11-13T18:00:10.781Z,14.30
2022-11-13T18:02:39.637Z,14.50
2022-11-13T18:05:10.186Z,18.38
2022-11-13T18:07:40.310Z,11.60
2022-11-13T18:10:10.957Z,16.95
2022-11-13T18:12:38.919Z,14.23
2022-11-13T18:15:07.494Z,15.27
2022-11-13T18:17:35.611Z,17.63
2022-11-13T18:20:03.476Z,18.92
2022-11-13T18:22:31.744Z,8.57
2022-11-13T18:25:01.565Z,11.95
2022-11-13T18:27:29.600Z,13.43
2022-11-13T18:29:57.733Z,18.83
2022-11-13T18:32:25.961Z,13.00
2022-11-13T18:34:54.329Z,15.38
2022-11-13T18:37:22.513Z,15.38
2022-11-13T18:39:50.597Z,14.43
2022-11-13T18:42:19.858Z,17.92
2022-11-13T18:44:47.996Z,19.13
2022-11-13T18:47:15.987Z,15.48
2022-11-13T18:49:43.844Z,15.27
2022-11-13T18:52:11.856Z,8.88
2022-11-13T18:54:39.948Z,11.80
2022-11-13T18:57:07.896Z,11.25
2022-11-13T18:59:37.304Z,12.45
2022-11-13T19:02:05.545Z,16.35
2022-11-13T19:04:35.552Z,13.50
2022-11-13T19:07:03.568Z,22.75
2022-11-13T19:09:31.693Z,15.18
2022-11-13T19:11:59.598Z,18.77
2022-11-13T19:14:27.569Z,14.02
2022-11-13T19:16:56.940Z,15.23
2022-11-13T19:19:25.060Z,16.98
2022-11-13T19:21:53.070Z,15.60
2022-11-13T19:24:21.080Z,14.18
2022-11-13T19:26:48.978Z,12.85
2022-11-13T19:29:17.303Z,13.35
2022-11-13T19:31:48.058Z,16.88
2022-11-13T19:34:17.384Z,14.73
2022-11-13T19:36:46.520Z,17.13
2022-11-13T19:39:15.657Z,15.15
2022-11-13T19:41:43.633Z,16.00
2022-11-13T19:44:11.714Z,20.52
2022-11-13T19:46:39.629Z,17.08
2022-11-13T19:49:08.196Z,19.85
2022-11-13T19:51:37.646Z,13.88
2022-11-13T19:54:05.608Z,17.13
2022-11-13T19:56:33.460Z,14.32
2022-11-13T19:59:01.365Z,19.00
2022-11-13T20:01:32.121Z,16.67
2022-11-13T20:04:01.913Z,35.10
2022-11-13T20:06:31.718Z,56.80
2022-11-13T20:09:01.784Z,33.45
2022-11-13T20:11:29.943Z,36.83
2022-11-13T20:13:58.490Z,18.33
2022-11-13T20:16:26.725Z,57.03
2022-11-13T20:18:58.212Z,38.95
2022-11-13T20:21:27.181Z,24.08
2022-11-13T20:23:57.852Z,63.10
2022-11-13T20:26:27.666Z,54.03
2022-11-13T20:28:55.611Z,39.53
2022-11-13T20:31:25.135Z,25.83
2022-11-13T20:33:55.395Z,41.40
2022-11-13T20:36:24.458Z,21.48
2022-11-13T20:38:54.115Z,17.85
2022-11-13T20:41:24.230Z,23.55
2022-11-13T20:43:55.827Z,17.30
2022-11-13T20:46:24.047Z,21.98
2022-11-13T20:48:52.165Z,10.70
2022-11-13T20:51:21.508Z,10.95
2022-11-13T20:53:49.980Z,9.00
2022-11-13T20:56:18.964Z,8.20
2022-11-13T20:58:47.252Z,20.98
2022-11-13T21:01:18.601Z,11.85
2022-11-13T21:03:47.508Z,12.32
2022-11-13T21:06:17.587Z,11.00
2022-11-13T21:08:46.149Z,8.90
2022-11-13T21:11:16.713Z,8.38
2022-11-13T21:13:44.769Z,14.55
2022-11-13T21:16:12.857Z,42.45
2022-11-13T21:18:42.455Z,21.42
2022-11-13T21:21:11.969Z,35.97
2022-11-13T21:23:39.949Z,8.73
2022-11-13T21:26:09.933Z,5.88
2022-11-13T21:28:38.560Z,10.82
2022-11-13T21:31:09.230Z,5.93
2022-11-13T21:33:38.755Z,5.35
2022-11-13T21:36:11.975Z,6.30
2022-11-13T21:38:40.409Z,13.63
2022-11-13T21:41:25.044Z,6.13
2022-11-13T21:43:56.924Z,20.10
2022-11-13T21:46:27.606Z,35.22
2022-11-13T21:48:58.236Z,18.35
2022-11-13T21:51:28.119Z,39.78
2022-11-13T21:53:56.204Z,59.80
2022-11-13T21:56:24.889Z,33.97
2022-11-13T21:58:53.208Z,31.27
2022-11-13T22:01:23.546Z,24.42
2022-11-13T22:03:51.871Z,41.25
2022-11-13T22:06:22.840Z,37.70
2022-11-13T22:08:58.681Z,29.55
2022-11-13T22:11:28.130Z,43.00
2022-11-13T22:13:56.560Z,26.92
2022-11-13T22:16:26.013Z,24.00
2022-11-13T22:18:55.603Z,31.15
2022-11-13T22:21:24.198Z,24.55
2022-11-13T22:23:52.641Z,37.58
2022-11-13T22:26:23.384Z,27.95
2022-11-13T22:28:51.998Z,21.42
2022-11-13T22:31:21.688Z,20.60
2022-11-13T22:33:54.418Z,28.73
2022-11-13T22:36:25.762Z,20.65
2022-11-13T22:38:54.368Z,22.25
2022-11-13T22:41:25.511Z,28.25
2022-11-13T22:43:55.223Z,25.42
2022-11-13T22:46:27.718Z,24.92
2022-11-13T22:48:57.281Z,6.70
2022-11-13T22:51:27.004Z,27.00
2022-11-13T22:53:56.939Z,28.05
2022-11-13T22:56:28.103Z,28.48
2022-11-13T22:58:57.247Z,23.75
2022-11-13T23:01:27.414Z,18.27
2022-11-13T23:03:56.963Z,23.58
2022-11-13T23:06:26.868Z,19.48
2022-11-13T23:08:55.295Z,19.08
2022-11-13T23:11:25.468Z,17.55
2022-11-13T23:13:56.741Z,16.92
2022-11-13T23:16:26.330Z,11.80
2022-11-13T23:18:56.338Z,24.50
2022-11-13T23:21:25.211Z,18.08
2022-11-13T23:23:53.792Z,17.55
2022-11-13T23:26:22.426Z,15.95
2022-11-13T23:28:50.408Z,27.80
2022-11-13T23:31:19.845Z,19.88
2022-11-13T23:33:48.449Z,24.15
2022-11-13T23:36:18.069Z,33.35
2022-11-13T23:38:46.498Z,26.15
2022-11-13T23:41:14.495Z,15.65
2022-11-13T23:46:31.988Z,49.50
2022-11-13T23:49:00.903Z,20.30
2022-11-13T23:51:28.762Z,18.52
2022-11-13T23:53:56.837Z,24.25
2022-11-13T23:56:24.823Z,16.40
2022-11-13T23:58:53.529Z,21.48
